Seaspan Raven — CFN6643 — position and weather

sailwx.info

Track history (hours):
 
Tides and Currents Weather Stations Pressure Air Temp Water Temp Dewpoint Dewpoint Depression Visibility Wind Speed Wind Dir Waves Ship Positions

Seaspan Raven

Last reported at 2018-Feb-21 05:30 UTC. Time now 2018-Feb-21 05:57 UTC.
Position N 49°18' W 122°59'.

Length 26 m; draft 4.5 m.

Type: Tug. MMSI: 316018851.

Date/timePositionNaut miles runAvg speedWind from/ knotsBaromVisibWave heightAir tempDewpointWater temp
2018-Feb-21 05:30N 49°18' W 122°59'1 2.9
2018-Feb-21 05:00N 49°18' W 123°01'0 0.3
2018-Feb-21 04:30N 49°18' W 123°01'0 0.2
2018-Feb-21 04:01N 49°18' W 123°01'1 2.4
2018-Feb-21 03:30N 49°18' W 123°03'0 0.0
2018-Feb-21 03:00N 49°18' W 123°03'0 0.0
2018-Feb-21 02:30N 49°18' W 123°03'1 1.3
2018-Feb-21 02:00N 49°18' W 123°03'1 2.2
2018-Feb-21 01:30N 49°17' W 123°05'0 0.0
2018-Feb-21 01:01N 49°17' W 123°05'1 1.6
2018-Feb-21 00:30N 49°18' W 123°06'1 1.6
2018-Feb-21 00:00N 49°18' W 123°05'0 0.2
2018-Feb-20 23:30N 49°18' W 123°05'0 0.0
2018-Feb-20 23:00N 49°18' W 123°05'0 0.0
2018-Feb-20 22:30N 49°18' W 123°05'0 0.0
2018-Feb-20 22:00N 49°18' W 123°05'1 2.6
2018-Feb-20 21:30N 49°18' W 123°06'1 2.0
2018-Feb-20 21:01N 49°17' W 123°05'0 0.3
2018-Feb-20 20:31N 49°17' W 123°05'1 2.2
2018-Feb-20 20:00N 49°18' W 123°06'1 1.2
2018-Feb-20 19:30N 49°19' W 123°06'0 0.0
2018-Feb-20 19:00N 49°19' W 123°06'0 0.0
2018-Feb-20 18:31N 49°19' W 123°06'0 0.0
2018-Feb-20 18:00N 49°19' W 123°06'0 0.0
2018-Feb-20 17:30N 49°19' W 123°06'0 0.0
2018-Feb-20 17:00N 49°19' W 123°06'0 0.0
2018-Feb-20 16:30N 49°19' W 123°06'0 0.0
2018-Feb-20 16:01N 49°19' W 123°06'0 0.0
2018-Feb-20 15:30N 49°19' W 123°06'0 0.0
2018-Feb-20 15:01N 49°19' W 123°06'2 4.7
2018-Feb-20 14:31N 49°18' W 123°03'1 1.0
2018-Feb-20 14:00N 49°18' W 123°02'1 1.6
2018-Feb-20 13:30N 49°18' W 123°03'2 3.3
2018-Feb-20 13:01N 49°17' W 123°06'0 0.9
2018-Feb-20 12:31N 49°18' W 123°05'1 1.9
2018-Feb-20 12:00N 49°19' W 123°06'0 0.0
2018-Feb-20 11:30N 49°19' W 123°06'0 0.0
2018-Feb-20 11:00N 49°19' W 123°06'0 0.0
2018-Feb-20 10:30N 49°19' W 123°06'0 0.0
2018-Feb-20 10:01N 49°19' W 123°06'0 0.0
2018-Feb-20 09:30N 49°19' W 123°06'0 0.0
2018-Feb-20 09:00N 49°19' W 123°06'0 0.0
2018-Feb-20 08:30N 49°19' W 123°06'0 0.0
2018-Feb-20 08:00N 49°19' W 123°06'0 0.0
2018-Feb-20 07:30N 49°19' W 123°06'0 0.0
2018-Feb-20 07:00N 49°19' W 123°06'0 0.0
2018-Feb-20 06:30N 49°19' W 123°06'0 0.0
2018-Feb-20 06:00N 49°19' W 123°06'0 0.0
2018-Feb-20 05:30N 49°19' W 123°06'0 0.0
2018-Feb-20 05:00N 49°19' W 123°06'0 0.0
2018-Feb-20 04:30N 49°19' W 123°06'0 0.0
2018-Feb-20 04:00N 49°19' W 123°06'0 0.0
2018-Feb-20 03:30N 49°19' W 123°06'0 0.0
2018-Feb-20 03:00N 49°19' W 123°06'0 0.0
2018-Feb-20 02:30N 49°19' W 123°06'0 0.0
2018-Feb-20 02:00N 49°19' W 123°06'0 0.0
2018-Feb-20 01:30N 49°19' W 123°06'0 0.0
2018-Feb-20 01:00N 49°19' W 123°06'0 0.0
2018-Feb-20 00:30N 49°19' W 123°06'1 1.6
2018-Feb-20 00:01N 49°19' W 123°07'0 0.3
2018-Feb-19 23:31N 49°19' W 123°07'0 0.4
2018-Feb-19 23:01N 49°18' W 123°07'1 1.9
2018-Feb-19 22:30N 49°19' W 123°06'0 0.0
2018-Feb-19 22:01N 49°19' W 123°06'0 0.0
2018-Feb-19 21:31N 49°19' W 123°06'0 0.0
2018-Feb-19 21:00N 49°19' W 123°06'0 0.3
2018-Feb-19 20:30N 49°19' W 123°06'0 0.0
2018-Feb-19 20:00N 49°19' W 123°06'0 0.0
2018-Feb-19 19:30N 49°19' W 123°06'0 0.2
2018-Feb-19 19:00N 49°18' W 123°06'1 2.4
2018-Feb-19 18:30N 49°18' W 123°07'0 0.0
2018-Feb-19 18:00N 49°18' W 123°07'0 0.0
2018-Feb-19 17:30N 49°18' W 123°07'0 0.0
2018-Feb-19 17:00N 49°18' W 123°07'1 2.1
2018-Feb-19 16:30N 49°19' W 123°06'0 0.0
2018-Feb-19 16:00N 49°19' W 123°06'0 0.0
2018-Feb-19 15:30N 49°19' W 123°06'0 0.0
2018-Feb-19 15:01N 49°19' W 123°06'0 0.0
2018-Feb-19 14:30N 49°19' W 123°06'0 0.0
2018-Feb-19 14:00N 49°19' W 123°06'0 0.0
2018-Feb-19 13:30N 49°19' W 123°06'0 0.0
2018-Feb-19 13:00N 49°19' W 123°06'0 0.0
2018-Feb-19 12:30N 49°19' W 123°06'0 0.0
2018-Feb-19 12:00N 49°19' W 123°06'0 0.0
2018-Feb-19 11:30N 49°19' W 123°06'0 0.0
2018-Feb-19 11:00N 49°19' W 123°06'0 0.0
2018-Feb-19 10:30N 49°19' W 123°06'3 6.0
2018-Feb-19 10:01N 49°19' W 123°11'611.7
2018-Feb-19 09:30N 49°15' W 123°18'612.7
2018-Feb-19 09:00N 49°09' W 123°19'510.9
2018-Feb-19 08:30N 49°03' W 123°19'611.6
2018-Feb-19 08:00N 49°00' W 123°11'2 3.0
2018-Feb-19 07:29N 49°01' W 123°09'0 0.1
2018-Feb-19 06:56N 49°01' W 123°09'1 2.7
2018-Feb-19 06:30N 49°00' W 123°10'1 1.5
2018-Feb-19 06:00N 49°00' W 123°11'2 2.5
2018-Feb-19 05:20N 49°01' W 123°09'0 0.0
2018-Feb-19 05:00N 49°01' W 123°09'0 0.0
2018-Feb-19 04:30N 49°01' W 123°09'0 0.0
2018-Feb-19 04:00N 49°01' W 123°09'0 0.0
2018-Feb-19 03:27N 49°01' W 123°09'0 0.0
2018-Feb-19 03:00N 49°01' W 123°09'0 0.0
2018-Feb-19 02:30N 49°01' W 123°09'0 0.0
2018-Feb-19 01:59N 49°01' W 123°09'0 0.0
2018-Feb-19 01:30N 49°01' W 123°09'0 0.0
2018-Feb-19 01:00N 49°01' W 123°09'0 0.0
2018-Feb-19 00:30N 49°01' W 123°09'0 0.0
2018-Feb-19 00:00N 49°01' W 123°09'0 0.0
2018-Feb-18 23:30N 49°01' W 123°09'0 0.0
2018-Feb-18 23:00N 49°01' W 123°09'1 1.4
2018-Feb-18 22:03N 49°00' W 123°10'1 6.2
2018-Feb-18 21:58N 48°60' W 123°10'1 1.2
2018-Feb-18 21:30N 49°00' W 123°10'1 1.5
2018-Feb-18 20:55N 49°01' W 123°09'2 5.3
2018-Feb-18 20:30N 48°59' W 123°11'611.6
2018-Feb-18 20:00N 48°55' W 123°16'5 9.8
2018-Feb-18 19:29N 48°51' W 123°21'510.8
2018-Feb-18 19:00N 48°46' W 123°19'511.0
2018-Feb-18 18:30N 48°41' W 123°16'510.0
2018-Feb-18 18:00N 48°36' W 123°14'5 9.8
2018-Feb-18 17:30N 48°31' W 123°14'510.1
2018-Feb-18 17:00N 48°26' W 123°16'4 8.4
2018-Feb-18 16:30N 48°23' W 123°21'3 5.1
2018-Feb-18 16:00N 48°25' W 123°24'0 0.2
2018-Feb-18 15:30N 48°25' W 123°24'0 0.1
2018-Feb-18 13:39N 48°25' W 123°23'0 0.0
2018-Feb-18 13:29N 48°25' W 123°23'0 0.0
2018-Feb-18 13:00N 48°25' W 123°23'0 0.0
2018-Feb-18 12:30N 48°25' W 123°23'3 6.7
2018-Feb-18 11:59N 48°23' W 123°19'4 9.3
2018-Feb-18 11:30N 48°27' W 123°15'611.5
2018-Feb-18 11:00N 48°33' W 123°13'611.1
2018-Feb-18 10:30N 48°38' W 123°15'612.0
2018-Feb-18 10:00N 48°44' W 123°17'612.2
2018-Feb-18 09:30N 48°50' W 123°21'4 7.8
2018-Feb-18 09:00N 48°53' W 123°18'612.8
2018-Feb-18 08:30N 48°58' W 123°12'3 6.5
2018-Feb-18 08:00N 49°01' W 123°09'0 0.0
2018-Feb-18 07:30N 49°01' W 123°09'1 2.4
2018-Feb-18 06:58N 48°60' W 123°09'1 1.1
2018-Feb-18 06:30N 49°00' W 123°10'1 2.1
2018-Feb-18 06:00N 49°00' W 123°11'4 7.7
2018-Feb-18 05:30N 49°02' W 123°16'510.5
2018-Feb-18 05:00N 49°07' W 123°20'510.7
2018-Feb-18 04:30N 49°12' W 123°19'510.0
2018-Feb-18 04:00N 49°17' W 123°17'4 8.8
2018-Feb-18 03:30N 49°19' W 123°11'4 8.4
2018-Feb-18 03:00N 49°19' W 123°05'0 0.0
2018-Feb-18 02:30N 49°19' W 123°05'0 0.0
2018-Feb-18 02:00N 49°19' W 123°05'0 0.0
2018-Feb-18 01:30N 49°19' W 123°05'0 0.0
2018-Feb-18 01:00N 49°19' W 123°05'0 0.0
2018-Feb-18 00:30N 49°19' W 123°05'0 0.0
2018-Feb-18 00:00N 49°19' W 123°05'0 0.0
2018-Feb-17 23:30N 49°19' W 123°05'0 0.0
2018-Feb-17 23:00N 49°19' W 123°05'1 2.1
2018-Feb-17 22:30N 49°18' W 123°03'0 0.0
2018-Feb-17 22:00N 49°18' W 123°03'0 1.0
2018-Feb-17 21:30N 49°18' W 123°04'2 3.1
2018-Feb-17 21:00N 49°19' W 123°06'0 0.0
2018-Feb-17 20:30N 49°19' W 123°06'0 0.9
2018-Feb-17 20:00N 49°18' W 123°06'1 1.3
2018-Feb-17 19:30N 49°18' W 123°07'3 6.6
2018-Feb-17 19:00N 49°19' W 123°12'3 6.7
2018-Feb-17 18:30N 49°18' W 123°07'3 5.9
2018-Feb-17 18:00N 49°18' W 123°03'0 0.0
2018-Feb-17 17:30N 49°18' W 123°03'0 0.0
2018-Feb-17 17:00N 49°18' W 123°03'0 0.0
2018-Feb-17 16:30N 49°18' W 123°03'0 0.0
2018-Feb-17 16:00N 49°18' W 123°03'1 1.1
2018-Feb-17 15:30N 49°18' W 123°02'1 2.2
2018-Feb-17 15:00N 49°18' W 123°00'2 4.8
2018-Feb-17 14:30N 49°18' W 122°57'2 4.3
2018-Feb-17 14:00N 49°18' W 122°53'1 1.8
2018-Feb-17 13:30N 49°17' W 122°52'0 0.1
2018-Feb-17 13:00N 49°17' W 122°52'0 0.0
2018-Feb-17 12:30N 49°17' W 122°52'0 0.1
2018-Feb-17 12:00N 49°17' W 122°52'0 0.0
2018-Feb-17 11:30N 49°17' W 122°52'0 0.0
2018-Feb-17 11:00N 49°17' W 122°52'0 0.1
2018-Feb-17 10:30N 49°17' W 122°52'0 0.0
2018-Feb-17 10:00N 49°17' W 122°52'0 0.1
2018-Feb-17 09:30N 49°17' W 122°52'0 0.0
2018-Feb-17 09:00N 49°17' W 122°52'0 0.0
2018-Feb-17 08:30N 49°17' W 122°52'1 2.3
2018-Feb-17 08:00N 49°17' W 122°54'0 0.1
2018-Feb-17 07:30N 49°17' W 122°54'1 3.0
2018-Feb-17 07:00N 49°18' W 122°56'1 2.7
2018-Feb-17 06:30N 49°18' W 122°58'1 1.0
2018-Feb-17 06:00N 49°18' W 122°58'0 0.1
2018-Feb-17 05:30N 49°18' W 122°58'0 0.3
2018-Feb-17 05:00N 49°18' W 122°58'2 4.0
2018-Feb-17 04:30N 49°18' W 123°02'0 0.8
2018-Feb-17 04:00N 49°18' W 123°02'0 0.2
2018-Feb-17 03:30N 49°18' W 123°02'0 0.4
2018-Feb-17 03:00N 49°18' W 123°03'0 0.9
2018-Feb-17 02:30N 49°18' W 123°02'0 0.5
2018-Feb-17 02:00N 49°18' W 123°02'3 5.3
2018-Feb-17 01:30N 49°18' W 123°06'1 1.0
2018-Feb-17 01:00N 49°19' W 123°06'0 0.0
2018-Feb-17 00:30N 49°19' W 123°06'0 0.0
2018-Feb-17 00:00N 49°19' W 123°06'0 0.0
2018-Feb-16 23:30N 49°19' W 123°06'0 0.0
2018-Feb-16 23:00N 49°19' W 123°06'0 0.0
2018-Feb-16 22:30N 49°19' W 123°06'0 0.0
2018-Feb-16 22:00N 49°19' W 123°06'0 0.0
2018-Feb-16 21:30N 49°19' W 123°06'0 0.0
2018-Feb-16 21:00N 49°19' W 123°06'0 0.0
2018-Feb-16 20:30N 49°19' W 123°06'0 0.0
2018-Feb-16 20:00N 49°19' W 123°06'0 0.0
2018-Feb-16 19:30N 49°19' W 123°06'0 0.0
2018-Feb-16 19:00N 49°19' W 123°06'0 0.0
2018-Feb-16 18:30N 49°19' W 123°06'0 0.0
2018-Feb-16 18:00N 49°19' W 123°06'0 0.0
2018-Feb-16 17:30N 49°19' W 123°06'0 0.0
2018-Feb-16 17:00N 49°19' W 123°06'0 0.1
2018-Feb-16 16:30N 49°19' W 123°06'0 0.1
2018-Feb-16 16:00N 49°19' W 123°06'0 0.1
2018-Feb-16 15:31N 49°19' W 123°06'0 0.0
2018-Feb-16 15:00N 49°19' W 123°06'0 0.0
2018-Feb-16 14:30N 49°19' W 123°06'0 0.0
2018-Feb-16 14:00N 49°19' W 123°06'0 0.0
2018-Feb-16 13:30N 49°19' W 123°06'0 0.5
2018-Feb-16 13:01N 49°18' W 123°06'1 3.0
2018-Feb-16 12:30N 49°17' W 123°05'0 0.3
2018-Feb-16 12:00N 49°17' W 123°05'2 4.7
2018-Feb-16 11:30N 49°19' W 123°08'2 4.9
2018-Feb-16 11:00N 49°19' W 123°12'2 3.4
2018-Feb-16 10:30N 49°19' W 123°14'611.8
2018-Feb-16 10:00N 49°14' W 123°19'713.8
2018-Feb-16 09:30N 49°07' W 123°20'713.6
2018-Feb-16 09:00N 49°00' W 123°20'713.5
2018-Feb-16 08:30N 48°53' W 123°18'5 9.9
2018-Feb-16 08:01N 48°49' W 123°20'611.2
2018-Feb-16 07:31N 48°44' W 123°17'611.6
2018-Feb-16 07:01N 48°38' W 123°14'510.2
2018-Feb-16 06:31N 48°33' W 123°12'510.1
2018-Feb-16 06:01N 48°28' W 123°14'610.9
2018-Feb-16 05:30N 48°23' W 123°18'511.0
2018-Feb-16 05:00N 48°19' W 123°24'6 4.3
2018-Feb-16 03:42N 48°23' W 123°18'211.2
2018-Feb-16 03:30N 48°24' W 123°15'510.3
2018-Feb-16 03:01N 48°29' W 123°12'612.0
2018-Feb-16 02:30N 48°35' W 123°13'611.7
2018-Feb-16 02:00N 48°40' W 123°15'5 9.1
2018-Feb-16 01:31N 48°44' W 123°10'510.6
2018-Feb-16 01:00N 48°46' W 123°03'4 7.7
2018-Feb-16 00:29N 48°50' W 123°02'4 7.5
2018-Feb-15 23:59N 48°53' W 123°05'612.4
2018-Feb-15 23:30N 48°58' W 123°11'612.1
2018-Feb-15 23:00N 49°03' W 123°17'611.5
2018-Feb-15 22:30N 49°08' W 123°19'611.8
2018-Feb-15 22:01N 49°14' W 123°18'510.6
2018-Feb-15 21:30N 49°19' W 123°14'4 7.4
2018-Feb-15 21:01N 49°19' W 123°09'4 7.5
2018-Feb-15 20:31N 49°18' W 123°03'3 4.9
2018-Feb-15 20:00N 49°18' W 122°59'2 3.3
2018-Feb-15 19:30N 49°18' W 122°57'2 3.8
2018-Feb-15 19:01N 49°18' W 122°60'4 8.1
2018-Feb-15 18:31N 49°18' W 123°06'1 1.1
2018-Feb-15 18:00N 49°19' W 123°06'0 0.0
2018-Feb-15 17:31N 49°19' W 123°06'0 0.0
2018-Feb-15 17:01N 49°19' W 123°06'0 0.0
2018-Feb-15 16:31N 49°19' W 123°06'0 0.0
2018-Feb-15 16:01N 49°19' W 123°06'0 0.0
2018-Feb-15 15:31N 49°19' W 123°06'0 0.0
2018-Feb-15 15:00N 49°19' W 123°06'2 3.4
2018-Feb-15 14:30N 49°18' W 123°04'3 6.6
2018-Feb-15 14:00N 49°18' W 122°59'3 5.7
2018-Feb-15 13:30N 49°17' W 122°55'2 3.5
2018-Feb-15 12:59N 49°17' W 122°52'0 0.1
2018-Feb-15 12:31N 49°17' W 122°52'1 2.9
2018-Feb-15 12:01N 49°18' W 122°54'3 5.5
2018-Feb-15 11:31N 49°18' W 122°58'0 0.0
2018-Feb-15 11:01N 49°18' W 122°58'0 0.2
2018-Feb-15 10:30N 49°18' W 122°58'5 9.3
2018-Feb-15 10:01N 49°18' W 123°05'611.1
2018-Feb-15 09:30N 49°18' W 123°14'611.0
2018-Feb-15 09:00N 49°14' W 123°19'612.2
2018-Feb-15 08:30N 49°08' W 123°20'612.3
2018-Feb-15 08:01N 49°02' W 123°20'612.4
2018-Feb-15 07:30N 48°56' W 123°18'611.1
2018-Feb-15 07:00N 48°50' W 123°21'611.5
2018-Feb-15 06:30N 48°45' W 123°18'612.0
2018-Feb-15 06:00N 48°39' W 123°14'5 9.8
2018-Feb-15 05:30N 48°35' W 123°13'510.8
2018-Feb-15 05:01N 48°29' W 123°14'510.4
2018-Feb-15 04:31N 48°24' W 123°17'4 7.1
2018-Feb-15 03:55N 48°25' W 123°23'0 0.0
2018-Feb-15 03:30N 48°25' W 123°23'1 1.0
2018-Feb-15 02:37N 48°25' W 123°25'1 3.8
2018-Feb-15 02:27N 48°25' W 123°26'5 1.0
2018-Feb-14 21:09N 48°24' W 123°18'211.4
2018-Feb-14 21:00N 48°25' W 123°17'511.0
2018-Feb-14 20:30N 48°30' W 123°14'611.8
2018-Feb-14 20:00N 48°36' W 123°14'611.8
2018-Feb-14 19:30N 48°42' W 123°17'611.3
2018-Feb-14 19:00N 48°47' W 123°20'5 9.6
2018-Feb-14 18:30N 48°52' W 123°20'4 8.3
2018-Feb-14 18:00N 48°56' W 123°18'510.4
2018-Feb-14 17:30N 49°01' W 123°19'510.1
2018-Feb-14 17:01N 49°06' W 123°20'510.4
2018-Feb-14 16:30N 49°11' W 123°19'510.7
2018-Feb-14 16:01N 49°16' W 123°18'5 9.3
2018-Feb-14 15:30N 49°19' W 123°12'510.0
2018-Feb-14 15:01N 49°18' W 123°04'2 3.4
2018-Feb-14 14:30N 49°18' W 123°02'0 0.0
2018-Feb-14 14:01N 49°18' W 123°02'1 3.0
2018-Feb-14 13:31N 49°18' W 123°04'2 3.3
2018-Feb-14 13:01N 49°19' W 123°06'0 0.0
2018-Feb-14 12:31N 49°19' W 123°06'0 0.0
2018-Feb-14 12:01N 49°19' W 123°06'0 0.0
2018-Feb-14 11:31N 49°19' W 123°06'0 0.0
2018-Feb-14 11:01N 49°19' W 123°06'0 0.0
2018-Feb-14 10:31N 49°19' W 123°06'0 0.0
2018-Feb-14 10:01N 49°19' W 123°06'0 0.0
2018-Feb-14 09:31N 49°19' W 123°06'0 0.0
2018-Feb-14 09:01N 49°19' W 123°06'0 0.0
2018-Feb-14 08:31N 49°19' W 123°06'0 0.0
2018-Feb-14 08:01N 49°19' W 123°06'0 0.0
2018-Feb-14 07:31N 49°19' W 123°06'0 0.0
2018-Feb-14 07:01N 49°19' W 123°06'0 0.0
2018-Feb-14 06:31N 49°19' W 123°06'0 0.0
2018-Feb-14 06:01N 49°19' W 123°06'0 0.0
2018-Feb-14 05:31N 49°19' W 123°06'0 0.0
2018-Feb-14 05:01N 49°19' W 123°06'0 0.0
2018-Feb-14 04:30N 49°19' W 123°06'0 0.3
2018-Feb-14 04:01N 49°19' W 123°06'1 2.0
2018-Feb-14 03:31N 49°18' W 123°07'0 0.0
2018-Feb-14 03:01N 49°18' W 123°07'0 0.0
2018-Feb-14 02:31N 49°18' W 123°07'2 3.3
2018-Feb-14 02:00N 49°17' W 123°05'0 0.1
2018-Feb-14 01:31N 49°17' W 123°05'2 3.1
2018-Feb-14 01:01N 49°18' W 123°07'0 0.7
2018-Feb-14 00:31N 49°19' W 123°06'0 0.0
2018-Feb-14 00:00N 49°19' W 123°06'0 0.0
2018-Feb-13 23:30N 49°19' W 123°06'2 3.9
2018-Feb-13 23:00N 49°18' W 123°04'0 0.8
2018-Feb-13 22:31N 49°18' W 123°03'1 1.2
2018-Feb-13 22:01N 49°18' W 123°04'1 1.5
2018-Feb-13 21:31N 49°18' W 123°05'1 1.3
2018-Feb-13 21:01N 49°18' W 123°04'0 0.8
2018-Feb-13 20:31N 49°18' W 123°05'0 0.0
2018-Feb-13 20:01N 49°18' W 123°05'1 2.6
2018-Feb-13 19:30N 49°19' W 123°06'3 5.8
2018-Feb-13 19:01N 49°18' W 123°02'2 4.8
2018-Feb-13 18:31N 49°18' W 122°59'1 2.9
2018-Feb-13 18:00N 49°18' W 122°56'3 5.2
2018-Feb-13 17:30N 49°18' W 122°52'0 0.6
2018-Feb-13 17:00N 49°17' W 122°52'1 2.3
2018-Feb-13 16:30N 49°18' W 122°54'5 9.4
2018-Feb-13 16:00N 49°18' W 123°01'3 6.7
2018-Feb-13 15:31N 49°17' W 123°06'0 0.0
2018-Feb-13 15:01N 49°17' W 123°06'1 1.2
2018-Feb-13 14:31N 49°18' W 123°05'1 2.7
2018-Feb-13 14:01N 49°18' W 123°04'0 0.7
2018-Feb-13 13:31N 49°18' W 123°04'1 2.9
2018-Feb-13 13:01N 49°18' W 123°06'1 1.1
2018-Feb-13 12:31N 49°18' W 123°06'1 1.3
2018-Feb-13 12:01N 49°17' W 123°06'1 2.5
2018-Feb-13 11:30N 49°19' W 123°06'0 0.0
2018-Feb-13 11:01N 49°19' W 123°06'0 0.0
2018-Feb-13 10:31N 49°19' W 123°06'0 0.0
2018-Feb-13 10:00N 49°19' W 123°06'3 5.3
2018-Feb-13 09:30N 49°19' W 123°10'611.9
2018-Feb-13 09:00N 49°15' W 123°18'612.8
2018-Feb-13 08:30N 49°09' W 123°19'612.9
2018-Feb-13 08:00N 49°03' W 123°20'713.2
2018-Feb-13 07:30N 48°56' W 123°18'611.7
2018-Feb-13 07:00N 48°50' W 123°21'612.8
2018-Feb-13 06:31N 48°44' W 123°18'612.9
2018-Feb-13 06:01N 48°39' W 123°14'510.8
2018-Feb-13 05:30N 48°33' W 123°12'510.5
2018-Feb-13 05:00N 48°28' W 123°10'510.2
2018-Feb-13 04:31N 48°23' W 123°12'510.9
2018-Feb-13 04:01N 48°21' W 123°19'511.0
2018-Feb-13 03:31N 48°18' W 123°26'4 6.2
2018-Feb-13 02:48N 48°22' W 123°24'3 8.8
2018-Feb-13 02:30N 48°23' W 123°21'510.4
2018-Feb-13 02:00N 48°24' W 123°13'612.0
2018-Feb-13 01:31N 48°30' W 123°13'612.6
2018-Feb-13 01:01N 48°37' W 123°14'611.3
2018-Feb-13 00:31N 48°42' W 123°15'611.7
2018-Feb-13 00:00N 48°45' W 123°07'510.2
2018-Feb-12 23:30N 48°49' W 123°02'713.7
2018-Feb-12 23:00N 48°55' W 123°06'612.8
2018-Feb-12 22:31N 49°01' W 123°09'1 1.4
2018-Feb-12 22:00N 49°01' W 123°09'0 0.0
2018-Feb-12 21:30N 49°01' W 123°09'0 0.0
2018-Feb-12 21:00N 49°01' W 123°09'0 0.0
2018-Feb-12 20:30N 49°01' W 123°09'0 0.0
2018-Feb-12 20:00N 49°01' W 123°09'0 0.0
2018-Feb-12 19:31N 49°02' W 123°09'0 0.0
2018-Feb-12 19:00N 49°02' W 123°09'0 0.0
2018-Feb-12 18:29N 49°02' W 123°09'0 0.0
2018-Feb-12 18:00N 49°02' W 123°09'0 0.0
2018-Feb-12 17:29N 49°01' W 123°09'0 0.0
2018-Feb-12 17:00N 49°02' W 123°09'0 0.0
2018-Feb-12 16:30N 49°02' W 123°09'0 0.1
2018-Feb-12 16:01N 49°01' W 123°09'0 0.0
2018-Feb-12 15:31N 49°01' W 123°09'0 0.0
2018-Feb-12 15:01N 49°01' W 123°09'0 0.0
2018-Feb-12 14:31N 49°01' W 123°09'0 0.0
2018-Feb-12 14:00N 49°01' W 123°09'0 0.8
2018-Feb-12 13:30N 49°01' W 123°09'1 1.2
2018-Feb-12 13:00N 49°01' W 123°09'1 1.3
2018-Feb-12 12:31N 48°60' W 123°10'2 3.2
2018-Feb-12 11:59N 49°02' W 123°09'0 0.3
2018-Feb-12 11:30N 49°01' W 123°09'4 8.5
2018-Feb-12 11:01N 48°58' W 123°13'4 8.6
2018-Feb-12 10:30N 48°55' W 123°16'4 8.5
2018-Feb-12 10:00N 48°51' W 123°21'3 6.8
2018-Feb-12 09:31N 48°48' W 123°20'611.8
2018-Feb-12 09:00N 48°43' W 123°16'612.2
2018-Feb-12 08:30N 48°37' W 123°14'612.6
2018-Feb-12 08:00N 48°31' W 123°10'612.2
2018-Feb-12 07:30N 48°25' W 123°12'714.1
2018-Feb-12 07:01N 48°21' W 123°20'611.2
2018-Feb-12 06:30N 48°18' W 123°28'5 8.1
2018-Feb-12 05:53N 48°23' W 123°24'3 8.1
2018-Feb-12 05:30N 48°23' W 123°19'4 7.5
2018-Feb-12 05:00N 48°24' W 123°14'5 9.2
2018-Feb-12 04:31N 48°29' W 123°12'611.8
2018-Feb-12 04:01N 48°35' W 123°14'611.7
2018-Feb-12 03:31N 48°40' W 123°15'5 9.3
2018-Feb-12 03:01N 48°44' W 123°10'611.0
2018-Feb-12 02:30N 48°46' W 123°03'4 8.2
2018-Feb-12 02:00N 48°50' W 123°03'612.3
2018-Feb-12 01:30N 48°55' W 123°10'712.5
2018-Feb-12 00:58N 48°59' W 123°17'511.6
2018-Feb-12 00:30N 49°03' W 123°22'510.9
2018-Feb-12 00:00N 49°09' W 123°23'611.4
2018-Feb-11 23:30N 49°14' W 123°21'510.3
2018-Feb-11 23:00N 49°19' W 123°16'4 8.3
2018-Feb-11 22:30N 49°19' W 123°10'3 6.3
2018-Feb-11 22:00N 49°18' W 123°06'3 6.5
2018-Feb-11 21:30N 49°18' W 123°01'2 3.5
2018-Feb-11 21:00N 49°18' W 122°58'1 1.0
2018-Feb-11 20:30N 49°18' W 122°57'0 0.7
2018-Feb-11 20:00N 49°17' W 122°57'0 0.0
2018-Feb-11 19:30N 49°17' W 122°57'1 1.8
2018-Feb-11 19:00N 49°18' W 122°58'0 0.0
2018-Feb-11 18:30N 49°18' W 122°58'0 0.0
2018-Feb-11 18:00N 49°18' W 122°58'3 5.3
2018-Feb-11 17:30N 49°18' W 123°02'1 2.7
2018-Feb-11 17:00N 49°18' W 123°04'0 0.4
2018-Feb-11 16:30N 49°17' W 123°04'1 3.0
2018-Feb-11 16:00N 49°18' W 123°06'0 0.1
2018-Feb-11 15:30N 49°18' W 123°06'0 0.1
2018-Feb-11 15:00N 49°19' W 123°06'0 0.1
2018-Feb-11 14:30N 49°19' W 123°06'0 0.0
2018-Feb-11 14:00N 49°19' W 123°06'0 0.1
2018-Feb-11 13:30N 49°18' W 123°06'0 0.0
2018-Feb-11 13:00N 49°18' W 123°06'0 0.7
2018-Feb-11 12:30N 49°18' W 123°06'0 0.8
2018-Feb-11 12:00N 49°19' W 123°07'0 0.0
2018-Feb-11 11:30N 49°18' W 123°07'1 1.4
2018-Feb-11 11:00N 49°18' W 123°06'0 0.0
2018-Feb-11 10:30N 49°18' W 123°06'0 0.0
2018-Feb-11 10:00N 49°18' W 123°06'0 0.8
2018-Feb-11 09:30N 49°19' W 123°06'0 0.0
2018-Feb-11 09:00N 49°19' W 123°06'0 0.0
2018-Feb-11 08:30N 49°19' W 123°06'0 0.0
2018-Feb-11 08:00N 49°19' W 123°06'0 0.0
2018-Feb-11 07:30N 49°19' W 123°06'0 0.0
2018-Feb-11 07:00N 49°19' W 123°06'1 2.6
2018-Feb-11 06:30N 49°18' W 123°05'1 1.1
2018-Feb-11 06:00N 49°17' W 123°05'0 0.2
2018-Feb-11 05:30N 49°17' W 123°05'  
Track history (hours):
 
Tides and Currents Weather Stations Pressure Air Temp Water Temp Dewpoint Dewpoint Depression Visibility Wind Speed Wind Dir Waves Ship Positions

Seaspan Raven

Last reported at 2018-Feb-21 05:30 UTC. Time now 2018-Feb-21 05:57 UTC.
Position N 49°18' W 122°59'.

Length 26 m; draft 4.5 m.

Type: Tug. MMSI: 316018851.

Date/timePositionNaut miles runAvg speedWind from/ knotsBaromVisibWave heightAir tempDewpointWater temp
2018-Feb-21 05:30N 49°18' W 122°59'1 2.9
2018-Feb-21 05:00N 49°18' W 123°01'0 0.3
2018-Feb-21 04:30N 49°18' W 123°01'0 0.2
2018-Feb-21 04:01N 49°18' W 123°01'1 2.4
2018-Feb-21 03:30N 49°18' W 123°03'0 0.0
2018-Feb-21 03:00N 49°18' W 123°03'0 0.0
2018-Feb-21 02:30N 49°18' W 123°03'1 1.3
2018-Feb-21 02:00N 49°18' W 123°03'1 2.2
2018-Feb-21 01:30N 49°17' W 123°05'0 0.0
2018-Feb-21 01:01N 49°17' W 123°05'1 1.6
2018-Feb-21 00:30N 49°18' W 123°06'1 1.6
2018-Feb-21 00:00N 49°18' W 123°05'0 0.2
2018-Feb-20 23:30N 49°18' W 123°05'0 0.0
2018-Feb-20 23:00N 49°18' W 123°05'0 0.0
2018-Feb-20 22:30N 49°18' W 123°05'0 0.0
2018-Feb-20 22:00N 49°18' W 123°05'1 2.6
2018-Feb-20 21:30N 49°18' W 123°06'1 2.0
2018-Feb-20 21:01N 49°17' W 123°05'0 0.3
2018-Feb-20 20:31N 49°17' W 123°05'1 2.2
2018-Feb-20 20:00N 49°18' W 123°06'1 1.2
2018-Feb-20 19:30N 49°19' W 123°06'0 0.0
2018-Feb-20 19:00N 49°19' W 123°06'0 0.0
2018-Feb-20 18:31N 49°19' W 123°06'0 0.0
2018-Feb-20 18:00N 49°19' W 123°06'0 0.0
2018-Feb-20 17:30N 49°19' W 123°06'0 0.0
2018-Feb-20 17:00N 49°19' W 123°06'0 0.0
2018-Feb-20 16:30N 49°19' W 123°06'0 0.0
2018-Feb-20 16:01N 49°19' W 123°06'0 0.0
2018-Feb-20 15:30N 49°19' W 123°06'0 0.0
2018-Feb-20 15:01N 49°19' W 123°06'2 4.7
2018-Feb-20 14:31N 49°18' W 123°03'1 1.0
2018-Feb-20 14:00N 49°18' W 123°02'1 1.6
2018-Feb-20 13:30N 49°18' W 123°03'2 3.3
2018-Feb-20 13:01N 49°17' W 123°06'0 0.9
2018-Feb-20 12:31N 49°18' W 123°05'1 1.9
2018-Feb-20 12:00N 49°19' W 123°06'0 0.0
2018-Feb-20 11:30N 49°19' W 123°06'0 0.0
2018-Feb-20 11:00N 49°19' W 123°06'0 0.0
2018-Feb-20 10:30N 49°19' W 123°06'0 0.0
2018-Feb-20 10:01N 49°19' W 123°06'0 0.0
2018-Feb-20 09:30N 49°19' W 123°06'0 0.0
2018-Feb-20 09:00N 49°19' W 123°06'0 0.0
2018-Feb-20 08:30N 49°19' W 123°06'0 0.0
2018-Feb-20 08:00N 49°19' W 123°06'0 0.0
2018-Feb-20 07:30N 49°19' W 123°06'0 0.0
2018-Feb-20 07:00N 49°19' W 123°06'0 0.0
2018-Feb-20 06:30N 49°19' W 123°06'0 0.0
2018-Feb-20 06:00N 49°19' W 123°06'0 0.0
2018-Feb-20 05:30N 49°19' W 123°06'0 0.0
2018-Feb-20 05:00N 49°19' W 123°06'0 0.0
2018-Feb-20 04:30N 49°19' W 123°06'0 0.0
2018-Feb-20 04:00N 49°19' W 123°06'0 0.0
2018-Feb-20 03:30N 49°19' W 123°06'0 0.0
2018-Feb-20 03:00N 49°19' W 123°06'0 0.0
2018-Feb-20 02:30N 49°19' W 123°06'0 0.0
2018-Feb-20 02:00N 49°19' W 123°06'0 0.0
2018-Feb-20 01:30N 49°19' W 123°06'0 0.0
2018-Feb-20 01:00N 49°19' W 123°06'0 0.0
2018-Feb-20 00:30N 49°19' W 123°06'1 1.6
2018-Feb-20 00:01N 49°19' W 123°07'0 0.3
2018-Feb-19 23:31N 49°19' W 123°07'0 0.4
2018-Feb-19 23:01N 49°18' W 123°07'1 1.9
2018-Feb-19 22:30N 49°19' W 123°06'0 0.0
2018-Feb-19 22:01N 49°19' W 123°06'0 0.0
2018-Feb-19 21:31N 49°19' W 123°06'0 0.0
2018-Feb-19 21:00N 49°19' W 123°06'0 0.3
2018-Feb-19 20:30N 49°19' W 123°06'0 0.0
2018-Feb-19 20:00N 49°19' W 123°06'0 0.0
2018-Feb-19 19:30N 49°19' W 123°06'0 0.2
2018-Feb-19 19:00N 49°18' W 123°06'1 2.4
2018-Feb-19 18:30N 49°18' W 123°07'0 0.0
2018-Feb-19 18:00N 49°18' W 123°07'0 0.0
2018-Feb-19 17:30N 49°18' W 123°07'0 0.0
2018-Feb-19 17:00N 49°18' W 123°07'1 2.1
2018-Feb-19 16:30N 49°19' W 123°06'0 0.0
2018-Feb-19 16:00N 49°19' W 123°06'0 0.0
2018-Feb-19 15:30N 49°19' W 123°06'0 0.0
2018-Feb-19 15:01N 49°19' W 123°06'0 0.0
2018-Feb-19 14:30N 49°19' W 123°06'0 0.0
2018-Feb-19 14:00N 49°19' W 123°06'0 0.0
2018-Feb-19 13:30N 49°19' W 123°06'0 0.0
2018-Feb-19 13:00N 49°19' W 123°06'0 0.0
2018-Feb-19 12:30N 49°19' W 123°06'0 0.0
2018-Feb-19 12:00N 49°19' W 123°06'0 0.0
2018-Feb-19 11:30N 49°19' W 123°06'0 0.0
2018-Feb-19 11:00N 49°19' W 123°06'0 0.0
2018-Feb-19 10:30N 49°19' W 123°06'3 6.0
2018-Feb-19 10:01N 49°19' W 123°11'611.7
2018-Feb-19 09:30N 49°15' W 123°18'612.7
2018-Feb-19 09:00N 49°09' W 123°19'510.9
2018-Feb-19 08:30N 49°03' W 123°19'611.6
2018-Feb-19 08:00N 49°00' W 123°11'2 3.0
2018-Feb-19 07:29N 49°01' W 123°09'0 0.1
2018-Feb-19 06:56N 49°01' W 123°09'1 2.7
2018-Feb-19 06:30N 49°00' W 123°10'1 1.5
2018-Feb-19 06:00N 49°00' W 123°11'2 2.5
2018-Feb-19 05:20N 49°01' W 123°09'0 0.0
2018-Feb-19 05:00N 49°01' W 123°09'0 0.0
2018-Feb-19 04:30N 49°01' W 123°09'0 0.0
2018-Feb-19 04:00N 49°01' W 123°09'0 0.0
2018-Feb-19 03:27N 49°01' W 123°09'0 0.0
2018-Feb-19 03:00N 49°01' W 123°09'0 0.0
2018-Feb-19 02:30N 49°01' W 123°09'0 0.0
2018-Feb-19 01:59N 49°01' W 123°09'0 0.0
2018-Feb-19 01:30N 49°01' W 123°09'0 0.0
2018-Feb-19 01:00N 49°01' W 123°09'0 0.0
2018-Feb-19 00:30N 49°01' W 123°09'0 0.0
2018-Feb-19 00:00N 49°01' W 123°09'0 0.0
2018-Feb-18 23:30N 49°01' W 123°09'0 0.0
2018-Feb-18 23:00N 49°01' W 123°09'1 1.4
2018-Feb-18 22:03N 49°00' W 123°10'1 6.2
2018-Feb-18 21:58N 48°60' W 123°10'1 1.2
2018-Feb-18 21:30N 49°00' W 123°10'1 1.5
2018-Feb-18 20:55N 49°01' W 123°09'2 5.3
2018-Feb-18 20:30N 48°59' W 123°11'611.6
2018-Feb-18 20:00N 48°55' W 123°16'5 9.8
2018-Feb-18 19:29N 48°51' W 123°21'510.8
2018-Feb-18 19:00N 48°46' W 123°19'511.0
2018-Feb-18 18:30N 48°41' W 123°16'510.0
2018-Feb-18 18:00N 48°36' W 123°14'5 9.8
2018-Feb-18 17:30N 48°31' W 123°14'510.1
2018-Feb-18 17:00N 48°26' W 123°16'4 8.4
2018-Feb-18 16:30N 48°23' W 123°21'3 5.1
2018-Feb-18 16:00N 48°25' W 123°24'0 0.2
2018-Feb-18 15:30N 48°25' W 123°24'0 0.1
2018-Feb-18 13:39N 48°25' W 123°23'0 0.0
2018-Feb-18 13:29N 48°25' W 123°23'0 0.0
2018-Feb-18 13:00N 48°25' W 123°23'0 0.0
2018-Feb-18 12:30N 48°25' W 123°23'3 6.7
2018-Feb-18 11:59N 48°23' W 123°19'4 9.3
2018-Feb-18 11:30N 48°27' W 123°15'611.5
2018-Feb-18 11:00N 48°33' W 123°13'611.1
2018-Feb-18 10:30N 48°38' W 123°15'612.0
2018-Feb-18 10:00N 48°44' W 123°17'612.2
2018-Feb-18 09:30N 48°50' W 123°21'4 7.8
2018-Feb-18 09:00N 48°53' W 123°18'612.8
2018-Feb-18 08:30N 48°58' W 123°12'3 6.5
2018-Feb-18 08:00N 49°01' W 123°09'0 0.0
2018-Feb-18 07:30N 49°01' W 123°09'1 2.4
2018-Feb-18 06:58N 48°60' W 123°09'1 1.1
2018-Feb-18 06:30N 49°00' W 123°10'1 2.1
2018-Feb-18 06:00N 49°00' W 123°11'4 7.7
2018-Feb-18 05:30N 49°02' W 123°16'510.5
2018-Feb-18 05:00N 49°07' W 123°20'510.7
2018-Feb-18 04:30N 49°12' W 123°19'510.0
2018-Feb-18 04:00N 49°17' W 123°17'4 8.8
2018-Feb-18 03:30N 49°19' W 123°11'4 8.4
2018-Feb-18 03:00N 49°19' W 123°05'0 0.0
2018-Feb-18 02:30N 49°19' W 123°05'0 0.0
2018-Feb-18 02:00N 49°19' W 123°05'0 0.0
2018-Feb-18 01:30N 49°19' W 123°05'0 0.0
2018-Feb-18 01:00N 49°19' W 123°05'0 0.0
2018-Feb-18 00:30N 49°19' W 123°05'0 0.0
2018-Feb-18 00:00N 49°19' W 123°05'0 0.0
2018-Feb-17 23:30N 49°19' W 123°05'0 0.0
2018-Feb-17 23:00N 49°19' W 123°05'1 2.1
2018-Feb-17 22:30N 49°18' W 123°03'0 0.0
2018-Feb-17 22:00N 49°18' W 123°03'0 1.0
2018-Feb-17 21:30N 49°18' W 123°04'2 3.1
2018-Feb-17 21:00N 49°19' W 123°06'0 0.0
2018-Feb-17 20:30N 49°19' W 123°06'0 0.9
2018-Feb-17 20:00N 49°18' W 123°06'1 1.3
2018-Feb-17 19:30N 49°18' W 123°07'3 6.6
2018-Feb-17 19:00N 49°19' W 123°12'3 6.7
2018-Feb-17 18:30N 49°18' W 123°07'3 5.9
2018-Feb-17 18:00N 49°18' W 123°03'0 0.0
2018-Feb-17 17:30N 49°18' W 123°03'0 0.0
2018-Feb-17 17:00N 49°18' W 123°03'0 0.0
2018-Feb-17 16:30N 49°18' W 123°03'0 0.0
2018-Feb-17 16:00N 49°18' W 123°03'1 1.1
2018-Feb-17 15:30N 49°18' W 123°02'1 2.2
2018-Feb-17 15:00N 49°18' W 123°00'2 4.8
2018-Feb-17 14:30N 49°18' W 122°57'2 4.3
2018-Feb-17 14:00N 49°18' W 122°53'1 1.8
2018-Feb-17 13:30N 49°17' W 122°52'0 0.1
2018-Feb-17 13:00N 49°17' W 122°52'0 0.0
2018-Feb-17 12:30N 49°17' W 122°52'0 0.1
2018-Feb-17 12:00N 49°17' W 122°52'0 0.0
2018-Feb-17 11:30N 49°17' W 122°52'0 0.0
2018-Feb-17 11:00N 49°17' W 122°52'0 0.1
2018-Feb-17 10:30N 49°17' W 122°52'0 0.0
2018-Feb-17 10:00N 49°17' W 122°52'0 0.1
2018-Feb-17 09:30N 49°17' W 122°52'0 0.0
2018-Feb-17 09:00N 49°17' W 122°52'0 0.0
2018-Feb-17 08:30N 49°17' W 122°52'1 2.3
2018-Feb-17 08:00N 49°17' W 122°54'0 0.1
2018-Feb-17 07:30N 49°17' W 122°54'1 3.0
2018-Feb-17 07:00N 49°18' W 122°56'1 2.7
2018-Feb-17 06:30N 49°18' W 122°58'1 1.0
2018-Feb-17 06:00N 49°18' W 122°58'0 0.1
2018-Feb-17 05:30N 49°18' W 122°58'0 0.3
2018-Feb-17 05:00N 49°18' W 122°58'2 4.0
2018-Feb-17 04:30N 49°18' W 123°02'0 0.8
2018-Feb-17 04:00N 49°18' W 123°02'0 0.2
2018-Feb-17 03:30N 49°18' W 123°02'0 0.4
2018-Feb-17 03:00N 49°18' W 123°03'0 0.9
2018-Feb-17 02:30N 49°18' W 123°02'0 0.5
2018-Feb-17 02:00N 49°18' W 123°02'3 5.3
2018-Feb-17 01:30N 49°18' W 123°06'1 1.0
2018-Feb-17 01:00N 49°19' W 123°06'0 0.0
2018-Feb-17 00:30N 49°19' W 123°06'0 0.0
2018-Feb-17 00:00N 49°19' W 123°06'0 0.0
2018-Feb-16 23:30N 49°19' W 123°06'0 0.0
2018-Feb-16 23:00N 49°19' W 123°06'0 0.0
2018-Feb-16 22:30N 49°19' W 123°06'0 0.0
2018-Feb-16 22:00N 49°19' W 123°06'0 0.0
2018-Feb-16 21:30N 49°19' W 123°06'0 0.0
2018-Feb-16 21:00N 49°19' W 123°06'0 0.0
2018-Feb-16 20:30N 49°19' W 123°06'0 0.0
2018-Feb-16 20:00N 49°19' W 123°06'0 0.0
2018-Feb-16 19:30N 49°19' W 123°06'0 0.0
2018-Feb-16 19:00N 49°19' W 123°06'0 0.0
2018-Feb-16 18:30N 49°19' W 123°06'0 0.0
2018-Feb-16 18:00N 49°19' W 123°06'0 0.0
2018-Feb-16 17:30N 49°19' W 123°06'0 0.0
2018-Feb-16 17:00N 49°19' W 123°06'0 0.1
2018-Feb-16 16:30N 49°19' W 123°06'0 0.1
2018-Feb-16 16:00N 49°19' W 123°06'0 0.1
2018-Feb-16 15:31N 49°19' W 123°06'0 0.0
2018-Feb-16 15:00N 49°19' W 123°06'0 0.0
2018-Feb-16 14:30N 49°19' W 123°06'0 0.0
2018-Feb-16 14:00N 49°19' W 123°06'0 0.0
2018-Feb-16 13:30N 49°19' W 123°06'0 0.5
2018-Feb-16 13:01N 49°18' W 123°06'1 3.0
2018-Feb-16 12:30N 49°17' W 123°05'0 0.3
2018-Feb-16 12:00N 49°17' W 123°05'2 4.7
2018-Feb-16 11:30N 49°19' W 123°08'2 4.9
2018-Feb-16 11:00N 49°19' W 123°12'2 3.4
2018-Feb-16 10:30N 49°19' W 123°14'611.8
2018-Feb-16 10:00N 49°14' W 123°19'713.8
2018-Feb-16 09:30N 49°07' W 123°20'713.6
2018-Feb-16 09:00N 49°00' W 123°20'713.5
2018-Feb-16 08:30N 48°53' W 123°18'5 9.9
2018-Feb-16 08:01N 48°49' W 123°20'611.2
2018-Feb-16 07:31N 48°44' W 123°17'611.6
2018-Feb-16 07:01N 48°38' W 123°14'510.2
2018-Feb-16 06:31N 48°33' W 123°12'510.1
2018-Feb-16 06:01N 48°28' W 123°14'610.9
2018-Feb-16 05:30N 48°23' W 123°18'511.0
2018-Feb-16 05:00N 48°19' W 123°24'6 4.3
2018-Feb-16 03:42N 48°23' W 123°18'211.2
2018-Feb-16 03:30N 48°24' W 123°15'510.3
2018-Feb-16 03:01N 48°29' W 123°12'612.0
2018-Feb-16 02:30N 48°35' W 123°13'611.7
2018-Feb-16 02:00N 48°40' W 123°15'5 9.1
2018-Feb-16 01:31N 48°44' W 123°10'510.6
2018-Feb-16 01:00N 48°46' W 123°03'4 7.7
2018-Feb-16 00:29N 48°50' W 123°02'4 7.5
2018-Feb-15 23:59N 48°53' W 123°05'612.4
2018-Feb-15 23:30N 48°58' W 123°11'612.1
2018-Feb-15 23:00N 49°03' W 123°17'611.5
2018-Feb-15 22:30N 49°08' W 123°19'611.8
2018-Feb-15 22:01N 49°14' W 123°18'510.6
2018-Feb-15 21:30N 49°19' W 123°14'4 7.4
2018-Feb-15 21:01N 49°19' W 123°09'4 7.5
2018-Feb-15 20:31N 49°18' W 123°03'3 4.9
2018-Feb-15 20:00N 49°18' W 122°59'2 3.3
2018-Feb-15 19:30N 49°18' W 122°57'2 3.8
2018-Feb-15 19:01N 49°18' W 122°60'4 8.1
2018-Feb-15 18:31N 49°18' W 123°06'1 1.1
2018-Feb-15 18:00N 49°19' W 123°06'0 0.0
2018-Feb-15 17:31N 49°19' W 123°06'0 0.0
2018-Feb-15 17:01N 49°19' W 123°06'0 0.0
2018-Feb-15 16:31N 49°19' W 123°06'0 0.0
2018-Feb-15 16:01N 49°19' W 123°06'0 0.0
2018-Feb-15 15:31N 49°19' W 123°06'0 0.0
2018-Feb-15 15:00N 49°19' W 123°06'2 3.4
2018-Feb-15 14:30N 49°18' W 123°04'3 6.6
2018-Feb-15 14:00N 49°18' W 122°59'3 5.7
2018-Feb-15 13:30N 49°17' W 122°55'2 3.5
2018-Feb-15 12:59N 49°17' W 122°52'0 0.1
2018-Feb-15 12:31N 49°17' W 122°52'1 2.9
2018-Feb-15 12:01N 49°18' W 122°54'3 5.5
2018-Feb-15 11:31N 49°18' W 122°58'0 0.0
2018-Feb-15 11:01N 49°18' W 122°58'0 0.2
2018-Feb-15 10:30N 49°18' W 122°58'5 9.3
2018-Feb-15 10:01N 49°18' W 123°05'611.1
2018-Feb-15 09:30N 49°18' W 123°14'611.0
2018-Feb-15 09:00N 49°14' W 123°19'612.2
2018-Feb-15 08:30N 49°08' W 123°20'612.3
2018-Feb-15 08:01N 49°02' W 123°20'612.4
2018-Feb-15 07:30N 48°56' W 123°18'611.1
2018-Feb-15 07:00N 48°50' W 123°21'611.5
2018-Feb-15 06:30N 48°45' W 123°18'612.0
2018-Feb-15 06:00N 48°39' W 123°14'5 9.8
2018-Feb-15 05:30N 48°35' W 123°13'510.8
2018-Feb-15 05:01N 48°29' W 123°14'510.4
2018-Feb-15 04:31N 48°24' W 123°17'4 7.1
2018-Feb-15 03:55N 48°25' W 123°23'0 0.0
2018-Feb-15 03:30N 48°25' W 123°23'1 1.0
2018-Feb-15 02:37N 48°25' W 123°25'1 3.8
2018-Feb-15 02:27N 48°25' W 123°26'5 1.0
2018-Feb-14 21:09N 48°24' W 123°18'211.4
2018-Feb-14 21:00N 48°25' W 123°17'511.0
2018-Feb-14 20:30N 48°30' W 123°14'611.8
2018-Feb-14 20:00N 48°36' W 123°14'611.8
2018-Feb-14 19:30N 48°42' W 123°17'611.3
2018-Feb-14 19:00N 48°47' W 123°20'5 9.6
2018-Feb-14 18:30N 48°52' W 123°20'4 8.3
2018-Feb-14 18:00N 48°56' W 123°18'510.4
2018-Feb-14 17:30N 49°01' W 123°19'510.1
2018-Feb-14 17:01N 49°06' W 123°20'510.4
2018-Feb-14 16:30N 49°11' W 123°19'510.7
2018-Feb-14 16:01N 49°16' W 123°18'5 9.3
2018-Feb-14 15:30N 49°19' W 123°12'510.0
2018-Feb-14 15:01N 49°18' W 123°04'2 3.4
2018-Feb-14 14:30N 49°18' W 123°02'0 0.0
2018-Feb-14 14:01N 49°18' W 123°02'1 3.0
2018-Feb-14 13:31N 49°18' W 123°04'2 3.3
2018-Feb-14 13:01N 49°19' W 123°06'0 0.0
2018-Feb-14 12:31N 49°19' W 123°06'0 0.0
2018-Feb-14 12:01N 49°19' W 123°06'0 0.0
2018-Feb-14 11:31N 49°19' W 123°06'0 0.0
2018-Feb-14 11:01N 49°19' W 123°06'0 0.0
2018-Feb-14 10:31N 49°19' W 123°06'0 0.0
2018-Feb-14 10:01N 49°19' W 123°06'0 0.0
2018-Feb-14 09:31N 49°19' W 123°06'0 0.0
2018-Feb-14 09:01N 49°19' W 123°06'0 0.0
2018-Feb-14 08:31N 49°19' W 123°06'0 0.0
2018-Feb-14 08:01N 49°19' W 123°06'0 0.0
2018-Feb-14 07:31N 49°19' W 123°06'0 0.0
2018-Feb-14 07:01N 49°19' W 123°06'0 0.0
2018-Feb-14 06:31N 49°19' W 123°06'0 0.0
2018-Feb-14 06:01N 49°19' W 123°06'0 0.0
2018-Feb-14 05:31N 49°19' W 123°06'0 0.0
2018-Feb-14 05:01N 49°19' W 123°06'0 0.0
2018-Feb-14 04:30N 49°19' W 123°06'0 0.3
2018-Feb-14 04:01N 49°19' W 123°06'1 2.0
2018-Feb-14 03:31N 49°18' W 123°07'0 0.0
2018-Feb-14 03:01N 49°18' W 123°07'0 0.0
2018-Feb-14 02:31N 49°18' W 123°07'2 3.3
2018-Feb-14 02:00N 49°17' W 123°05'0 0.1
2018-Feb-14 01:31N 49°17' W 123°05'2 3.1
2018-Feb-14 01:01N 49°18' W 123°07'0 0.7
2018-Feb-14 00:31N 49°19' W 123°06'0 0.0
2018-Feb-14 00:00N 49°19' W 123°06'0 0.0
2018-Feb-13 23:30N 49°19' W 123°06'2 3.9
2018-Feb-13 23:00N 49°18' W 123°04'0 0.8
2018-Feb-13 22:31N 49°18' W 123°03'1 1.2
2018-Feb-13 22:01N 49°18' W 123°04'1 1.5
2018-Feb-13 21:31N 49°18' W 123°05'1 1.3
2018-Feb-13 21:01N 49°18' W 123°04'0 0.8
2018-Feb-13 20:31N 49°18' W 123°05'0 0.0
2018-Feb-13 20:01N 49°18' W 123°05'1 2.6
2018-Feb-13 19:30N 49°19' W 123°06'3 5.8
2018-Feb-13 19:01N 49°18' W 123°02'2 4.8
2018-Feb-13 18:31N 49°18' W 122°59'1 2.9
2018-Feb-13 18:00N 49°18' W 122°56'3 5.2
2018-Feb-13 17:30N 49°18' W 122°52'0 0.6
2018-Feb-13 17:00N 49°17' W 122°52'1 2.3
2018-Feb-13 16:30N 49°18' W 122°54'5 9.4
2018-Feb-13 16:00N 49°18' W 123°01'3 6.7
2018-Feb-13 15:31N 49°17' W 123°06'0 0.0
2018-Feb-13 15:01N 49°17' W 123°06'1 1.2
2018-Feb-13 14:31N 49°18' W 123°05'1 2.7
2018-Feb-13 14:01N 49°18' W 123°04'0 0.7
2018-Feb-13 13:31N 49°18' W 123°04'1 2.9
2018-Feb-13 13:01N 49°18' W 123°06'1 1.1
2018-Feb-13 12:31N 49°18' W 123°06'1 1.3
2018-Feb-13 12:01N 49°17' W 123°06'1 2.5
2018-Feb-13 11:30N 49°19' W 123°06'0 0.0
2018-Feb-13 11:01N 49°19' W 123°06'0 0.0
2018-Feb-13 10:31N 49°19' W 123°06'0 0.0
2018-Feb-13 10:00N 49°19' W 123°06'3 5.3
2018-Feb-13 09:30N 49°19' W 123°10'611.9
2018-Feb-13 09:00N 49°15' W 123°18'612.8
2018-Feb-13 08:30N 49°09' W 123°19'612.9
2018-Feb-13 08:00N 49°03' W 123°20'713.2
2018-Feb-13 07:30N 48°56' W 123°18'611.7
2018-Feb-13 07:00N 48°50' W 123°21'612.8
2018-Feb-13 06:31N 48°44' W 123°18'612.9
2018-Feb-13 06:01N 48°39' W 123°14'510.8
2018-Feb-13 05:30N 48°33' W 123°12'510.5
2018-Feb-13 05:00N 48°28' W 123°10'510.2
2018-Feb-13 04:31N 48°23' W 123°12'510.9
2018-Feb-13 04:01N 48°21' W 123°19'511.0
2018-Feb-13 03:31N 48°18' W 123°26'4 6.2
2018-Feb-13 02:48N 48°22' W 123°24'3 8.8
2018-Feb-13 02:30N 48°23' W 123°21'510.4
2018-Feb-13 02:00N 48°24' W 123°13'612.0
2018-Feb-13 01:31N 48°30' W 123°13'612.6
2018-Feb-13 01:01N 48°37' W 123°14'611.3
2018-Feb-13 00:31N 48°42' W 123°15'611.7
2018-Feb-13 00:00N 48°45' W 123°07'510.2
2018-Feb-12 23:30N 48°49' W 123°02'713.7
2018-Feb-12 23:00N 48°55' W 123°06'612.8
2018-Feb-12 22:31N 49°01' W 123°09'1 1.4
2018-Feb-12 22:00N 49°01' W 123°09'0 0.0
2018-Feb-12 21:30N 49°01' W 123°09'0 0.0
2018-Feb-12 21:00N 49°01' W 123°09'0 0.0
2018-Feb-12 20:30N 49°01' W 123°09'0 0.0
2018-Feb-12 20:00N 49°01' W 123°09'0 0.0
2018-Feb-12 19:31N 49°02' W 123°09'0 0.0
2018-Feb-12 19:00N 49°02' W 123°09'0 0.0
2018-Feb-12 18:29N 49°02' W 123°09'0 0.0
2018-Feb-12 18:00N 49°02' W 123°09'0 0.0
2018-Feb-12 17:29N 49°01' W 123°09'0 0.0
2018-Feb-12 17:00N 49°02' W 123°09'0 0.0
2018-Feb-12 16:30N 49°02' W 123°09'0 0.1
2018-Feb-12 16:01N 49°01' W 123°09'0 0.0
2018-Feb-12 15:31N 49°01' W 123°09'0 0.0
2018-Feb-12 15:01N 49°01' W 123°09'0 0.0
2018-Feb-12 14:31N 49°01' W 123°09'0 0.0
2018-Feb-12 14:00N 49°01' W 123°09'0 0.8
2018-Feb-12 13:30N 49°01' W 123°09'1 1.2
2018-Feb-12 13:00N 49°01' W 123°09'1 1.3
2018-Feb-12 12:31N 48°60' W 123°10'2 3.2
2018-Feb-12 11:59N 49°02' W 123°09'0 0.3
2018-Feb-12 11:30N 49°01' W 123°09'4 8.5
2018-Feb-12 11:01N 48°58' W 123°13'4 8.6
2018-Feb-12 10:30N 48°55' W 123°16'4 8.5
2018-Feb-12 10:00N 48°51' W 123°21'3 6.8
2018-Feb-12 09:31N 48°48' W 123°20'611.8
2018-Feb-12 09:00N 48°43' W 123°16'612.2
2018-Feb-12 08:30N 48°37' W 123°14'612.6
2018-Feb-12 08:00N 48°31' W 123°10'612.2
2018-Feb-12 07:30N 48°25' W 123°12'714.1
2018-Feb-12 07:01N 48°21' W 123°20'611.2
2018-Feb-12 06:30N 48°18' W 123°28'5 8.1
2018-Feb-12 05:53N 48°23' W 123°24'3 8.1
2018-Feb-12 05:30N 48°23' W 123°19'4 7.5
2018-Feb-12 05:00N 48°24' W 123°14'5 9.2
2018-Feb-12 04:31N 48°29' W 123°12'611.8
2018-Feb-12 04:01N 48°35' W 123°14'611.7
2018-Feb-12 03:31N 48°40' W 123°15'5 9.3
2018-Feb-12 03:01N 48°44' W 123°10'611.0
2018-Feb-12 02:30N 48°46' W 123°03'4 8.2
2018-Feb-12 02:00N 48°50' W 123°03'612.3
2018-Feb-12 01:30N 48°55' W 123°10'712.5
2018-Feb-12 00:58N 48°59' W 123°17'511.6
2018-Feb-12 00:30N 49°03' W 123°22'510.9
2018-Feb-12 00:00N 49°09' W 123°23'611.4
2018-Feb-11 23:30N 49°14' W 123°21'510.3
2018-Feb-11 23:00N 49°19' W 123°16'4 8.3
2018-Feb-11 22:30N 49°19' W 123°10'3 6.3
2018-Feb-11 22:00N 49°18' W 123°06'3 6.5
2018-Feb-11 21:30N 49°18' W 123°01'2 3.5
2018-Feb-11 21:00N 49°18' W 122°58'1 1.0
2018-Feb-11 20:30N 49°18' W 122°57'0 0.7
2018-Feb-11 20:00N 49°17' W 122°57'0 0.0
2018-Feb-11 19:30N 49°17' W 122°57'1 1.8
2018-Feb-11 19:00N 49°18' W 122°58'0 0.0
2018-Feb-11 18:30N 49°18' W 122°58'0 0.0
2018-Feb-11 18:00N 49°18' W 122°58'3 5.3
2018-Feb-11 17:30N 49°18' W 123°02'1 2.7
2018-Feb-11 17:00N 49°18' W 123°04'0 0.4
2018-Feb-11 16:30N 49°17' W 123°04'1 3.0
2018-Feb-11 16:00N 49°18' W 123°06'0 0.1
2018-Feb-11 15:30N 49°18' W 123°06'0 0.1
2018-Feb-11 15:00N 49°19' W 123°06'0 0.1
2018-Feb-11 14:30N 49°19' W 123°06'0 0.0
2018-Feb-11 14:00N 49°19' W 123°06'0 0.1
2018-Feb-11 13:30N 49°18' W 123°06'0 0.0
2018-Feb-11 13:00N 49°18' W 123°06'0 0.7
2018-Feb-11 12:30N 49°18' W 123°06'0 0.8
2018-Feb-11 12:00N 49°19' W 123°07'0 0.0
2018-Feb-11 11:30N 49°18' W 123°07'1 1.4
2018-Feb-11 11:00N 49°18' W 123°06'0 0.0
2018-Feb-11 10:30N 49°18' W 123°06'0 0.0
2018-Feb-11 10:00N 49°18' W 123°06'0 0.8
2018-Feb-11 09:30N 49°19' W 123°06'0 0.0
2018-Feb-11 09:00N 49°19' W 123°06'0 0.0
2018-Feb-11 08:30N 49°19' W 123°06'0 0.0
2018-Feb-11 08:00N 49°19' W 123°06'0 0.0
2018-Feb-11 07:30N 49°19' W 123°06'0 0.0
2018-Feb-11 07:00N 49°19' W 123°06'1 2.6
2018-Feb-11 06:30N 49°18' W 123°05'1 1.1
2018-Feb-11 06:00N 49°17' W 123°05'0 0.2
2018-Feb-11 05:30N 49°17' W 123°05'  

Dump ship's entire track history